createdAt,value
2024-02-16T00:01:24.485Z,23.23
2024-02-16T00:04:28.868Z,23.73
2024-02-16T00:07:31.856Z,22.65
2024-02-16T00:10:35.455Z,22.73
2024-02-16T00:13:38.555Z,22.83
2024-02-16T00:16:44.506Z,21.95
2024-02-16T00:19:48.873Z,22.88
2024-02-16T00:22:52.320Z,22.40
2024-02-16T00:25:55.184Z,23.35
2024-02-16T00:28:59.106Z,22.00
2024-02-16T00:32:01.998Z,22.60
2024-02-16T00:35:07.030Z,21.92
2024-02-16T00:38:12.870Z,21.30
2024-02-16T00:41:20.615Z,21.45
2024-02-16T00:44:23.485Z,22.58
2024-02-16T00:47:27.097Z,21.45
2024-02-16T00:50:31.425Z,22.50
2024-02-16T00:53:34.319Z,23.00
2024-02-16T00:56:37.657Z,23.40
2024-02-16T00:59:40.556Z,24.52
2024-02-16T01:02:43.517Z,23.65
2024-02-16T01:05:50.739Z,22.95
2024-02-16T01:08:53.701Z,23.05
2024-02-16T01:11:56.628Z,22.25
2024-02-16T01:14:59.618Z,22.30
2024-02-16T01:18:05.924Z,22.35
2024-02-16T01:21:10.350Z,21.75
2024-02-16T01:24:14.397Z,22.27
2024-02-16T01:27:18.006Z,21.13
2024-02-16T01:30:21.427Z,21.15
2024-02-16T01:33:24.714Z,21.98
2024-02-16T01:36:29.220Z,21.35
2024-02-16T01:39:32.144Z,20.73
2024-02-16T01:42:35.085Z,20.30
2024-02-16T01:45:38.075Z,19.25
2024-02-16T01:48:41.708Z,19.17
2024-02-16T01:51:47.211Z,18.70
2024-02-16T01:54:50.222Z,17.60
2024-02-16T01:57:53.408Z,18.45
2024-02-16T02:00:56.650Z,18.17
2024-02-16T02:04:00.169Z,16.88
2024-02-16T02:07:13.530Z,16.13
2024-02-16T02:10:16.682Z,16.15
2024-02-16T02:13:20.552Z,15.00
2024-02-16T02:16:23.927Z,14.85
2024-02-16T02:19:27.069Z,14.88
2024-02-16T02:22:31.399Z,14.32
2024-02-16T02:25:34.925Z,15.23
2024-02-16T02:28:37.831Z,15.60
2024-02-16T02:31:41.254Z,14.70
2024-02-16T02:34:44.569Z,14.88
2024-02-16T02:37:48.929Z,13.75
2024-02-16T02:40:52.440Z,13.50
2024-02-16T02:43:55.431Z,13.40
2024-02-16T02:46:58.344Z,13.07
2024-02-16T02:50:01.282Z,13.23
2024-02-16T02:53:05.965Z,13.32
2024-02-16T02:56:09.175Z,12.55
2024-02-16T02:59:12.297Z,12.57
2024-02-16T03:02:15.223Z,12.35
2024-02-16T03:05:21.563Z,13.23
2024-02-16T03:08:26.380Z,12.77
2024-02-16T03:11:29.298Z,13.10
2024-02-16T03:14:32.257Z,13.68
2024-02-16T03:17:35.228Z,12.77
2024-02-16T03:20:38.143Z,13.43
2024-02-16T03:23:42.398Z,13.40
2024-02-16T03:26:46.367Z,12.70
2024-02-16T03:29:49.288Z,13.15
2024-02-16T03:32:53.431Z,13.30
2024-02-16T03:35:56.411Z,12.85
2024-02-16T03:39:00.718Z,13.05
2024-02-16T03:42:03.712Z,12.57
2024-02-16T03:45:07.764Z,12.15
2024-02-16T03:48:11.116Z,13.15
2024-02-16T03:51:14.309Z,12.00
2024-02-16T03:54:18.695Z,12.05
2024-02-16T03:57:21.661Z,12.57
2024-02-16T04:00:24.642Z,11.60
2024-02-16T04:03:27.651Z,12.23
2024-02-16T04:06:30.777Z,12.05
2024-02-16T04:09:35.739Z,12.63
2024-02-16T04:12:38.835Z,11.48
2024-02-16T04:15:41.908Z,11.77
2024-02-16T04:18:45.238Z,12.02
2024-02-16T04:21:48.286Z,11.75
2024-02-16T04:24:52.539Z,12.15
2024-02-16T04:27:55.605Z,12.27
2024-02-16T04:30:58.514Z,12.05
2024-02-16T04:34:02.973Z,11.50
2024-02-16T04:37:05.974Z,11.68
2024-02-16T04:40:13.619Z,12.20
2024-02-16T04:43:17.306Z,12.60
2024-02-16T04:46:20.229Z,13.65
2024-02-16T04:49:23.244Z,12.90
2024-02-16T04:52:29.591Z,11.02
2024-02-16T04:55:35.122Z,11.63
2024-02-16T04:58:42.518Z,12.25
2024-02-16T05:01:46.019Z,10.93
2024-02-16T05:04:51.608Z,11.50
2024-02-16T05:07:54.451Z,11.20
2024-02-16T05:10:58.822Z,11.15
2024-02-16T05:14:01.827Z,11.70
2024-02-16T05:17:05.260Z,11.80
2024-02-16T05:20:16.252Z,11.55
2024-02-16T05:23:19.318Z,11.35
2024-02-16T05:26:23.616Z,11.43
2024-02-16T05:29:27.868Z,11.35
2024-02-16T05:32:30.792Z,12.35
2024-02-16T05:35:35.395Z,12.75
2024-02-16T05:38:44.452Z,10.80
2024-02-16T05:41:49.191Z,11.57
2024-02-16T05:44:52.539Z,10.73
2024-02-16T05:47:55.831Z,10.75
2024-02-16T05:51:02.220Z,10.48
2024-02-16T05:54:05.573Z,10.70
2024-02-16T05:57:10.472Z,11.02
2024-02-16T06:00:14.754Z,10.77
2024-02-16T06:03:17.784Z,15.20
2024-02-16T06:06:20.808Z,21.23
2024-02-16T06:09:23.784Z,16.02
2024-02-16T06:12:29.356Z,14.60
2024-02-16T06:15:32.348Z,10.63
2024-02-16T06:18:35.367Z,11.27
2024-02-16T06:21:38.498Z,12.48
2024-02-16T06:24:41.590Z,10.63
2024-02-16T06:27:46.034Z,11.23
2024-02-16T06:30:48.931Z,10.95
2024-02-16T06:33:52.033Z,11.30
2024-02-16T06:36:54.976Z,10.70
2024-02-16T06:39:57.879Z,10.68
2024-02-16T06:43:02.140Z,10.30
2024-02-16T06:46:06.443Z,10.50
2024-02-16T06:49:10.173Z,9.95
2024-02-16T06:52:13.684Z,9.80
2024-02-16T06:55:16.949Z,10.63
2024-02-16T06:58:21.342Z,9.93
2024-02-16T07:01:24.269Z,9.77
2024-02-16T07:04:30.188Z,9.07
2024-02-16T07:07:37.303Z,9.93
2024-02-16T07:10:40.604Z,8.98
2024-02-16T07:13:45.781Z,9.02
2024-02-16T07:16:48.821Z,9.25
2024-02-16T07:19:51.933Z,9.38
2024-02-16T07:22:54.995Z,9.38
2024-02-16T07:25:59.289Z,9.05
2024-02-16T07:29:03.831Z,8.05
2024-02-16T07:32:07.255Z,9.25
2024-02-16T07:35:11.494Z,8.30
2024-02-16T07:38:14.564Z,8.48
2024-02-16T07:41:18.188Z,8.50
2024-02-16T07:44:22.585Z,8.32
2024-02-16T07:47:25.511Z,8.07
2024-02-16T07:50:29.192Z,8.15
2024-02-16T07:53:32.937Z,8.13
2024-02-16T07:56:35.860Z,7.93
2024-02-16T07:59:41.724Z,8.00
2024-02-16T08:02:45.466Z,8.48
2024-02-16T08:05:48.548Z,7.43
2024-02-16T08:08:51.595Z,7.93
2024-02-16T08:11:54.631Z,7.13
2024-02-16T08:15:05.289Z,7.25
2024-02-16T08:18:08.714Z,7.10
2024-02-16T08:21:12.177Z,6.72
2024-02-16T08:24:21.470Z,6.63
2024-02-16T08:27:24.578Z,7.78
2024-02-16T08:30:29.519Z,7.20
2024-02-16T08:33:33.086Z,6.75
2024-02-16T08:36:36.261Z,6.50
2024-02-16T08:39:40.325Z,6.80
2024-02-16T08:42:43.784Z,6.15
2024-02-16T08:45:48.464Z,5.75
2024-02-16T08:48:51.644Z,6.38
2024-02-16T08:51:54.781Z,6.75
2024-02-16T08:54:58.205Z,6.30
2024-02-16T08:58:11.617Z,6.40
2024-02-16T09:01:17.086Z,5.88
2024-02-16T09:06:00.118Z,5.55
2024-02-16T09:08:13.009Z,5.65
2024-02-16T09:11:15.996Z,5.50
2024-02-16T09:14:19.565Z,5.20
2024-02-16T09:17:33.734Z,5.28
2024-02-16T09:20:36.728Z,5.10
2024-02-16T09:23:39.972Z,5.30
2024-02-16T09:26:42.996Z,4.97
2024-02-16T09:29:46.103Z,5.10
2024-02-16T09:32:50.417Z,4.60
2024-02-16T09:35:53.421Z,4.80
2024-02-16T09:38:56.476Z,4.47
2024-02-16T09:41:59.434Z,4.20
2024-02-16T09:45:02.921Z,4.00
2024-02-16T09:48:12.361Z,4.65
2024-02-16T09:51:15.346Z,4.15
2024-02-16T09:54:18.348Z,3.80
2024-02-16T09:57:21.299Z,3.72
2024-02-16T10:00:24.649Z,3.63
2024-02-16T10:03:30.910Z,3.65
2024-02-16T10:06:33.971Z,3.97
2024-02-16T10:09:37.034Z,3.65
2024-02-16T10:12:45.756Z,4.00
2024-02-16T10:15:48.996Z,3.90
2024-02-16T10:18:53.825Z,3.30
2024-02-16T10:21:56.887Z,3.30
2024-02-16T10:25:12.847Z,3.33
2024-02-16T10:28:18.032Z,3.13
2024-02-16T10:31:25.777Z,3.17
2024-02-16T10:34:30.865Z,3.50
2024-02-16T10:37:33.955Z,3.25
2024-02-16T10:40:40.067Z,3.05
2024-02-16T10:43:43.008Z,3.17
2024-02-16T10:46:46.030Z,3.00
2024-02-16T10:49:50.491Z,2.72
2024-02-16T10:52:54.789Z,2.70
2024-02-16T10:56:00.684Z,2.55
2024-02-16T10:59:05.108Z,2.78
2024-02-16T11:02:08.685Z,2.80
2024-02-16T11:05:26.739Z,2.67
2024-02-16T11:08:30.169Z,2.30
2024-02-16T11:11:33.375Z,2.40
2024-02-16T11:14:37.614Z,2.40
2024-02-16T11:17:41.167Z,2.42
2024-02-16T11:20:45.424Z,2.17
2024-02-16T11:23:49.274Z,2.20
2024-02-16T11:26:52.196Z,2.10
2024-02-16T11:29:57.070Z,2.08
2024-02-16T11:33:00.195Z,1.98
2024-02-16T11:36:05.792Z,1.98
2024-02-16T11:39:17.752Z,2.38
2024-02-16T11:42:24.614Z,1.83
2024-02-16T11:45:27.657Z,1.83
2024-02-16T11:48:33.167Z,2.00
2024-02-16T11:51:38.041Z,1.70
2024-02-16T11:54:41.348Z,1.80
2024-02-16T11:57:45.122Z,1.90
2024-02-16T12:00:48.751Z,1.70
2024-02-16T12:03:51.728Z,1.90
2024-02-16T12:07:00.987Z,1.85
2024-02-16T12:10:09.086Z,3.90
2024-02-16T12:13:12.126Z,3.17
2024-02-16T12:16:15.106Z,3.47
2024-02-16T12:19:18.426Z,2.70
2024-02-16T12:22:23.705Z,2.72
2024-02-16T12:25:26.591Z,3.13
2024-02-16T12:28:33.194Z,3.15
2024-02-16T12:31:39.018Z,3.03
2024-02-16T12:34:42.124Z,3.00
2024-02-16T12:37:48.894Z,2.70
2024-02-16T12:40:51.987Z,3.00
2024-02-16T12:43:54.976Z,2.65
2024-02-16T12:47:00.750Z,2.95
2024-02-16T12:50:03.813Z,3.15
2024-02-16T12:53:08.232Z,2.50
2024-02-16T12:56:11.509Z,2.83
2024-02-16T12:59:14.500Z,2.70
2024-02-16T13:02:17.511Z,2.80
2024-02-16T13:05:20.615Z,3.10
2024-02-16T13:08:24.919Z,3.90
2024-02-16T13:11:27.968Z,2.90
2024-02-16T13:14:31.023Z,3.20
2024-02-16T13:17:36.984Z,3.15
2024-02-16T13:20:40.111Z,2.83
2024-02-16T13:23:44.451Z,2.97
2024-02-16T13:26:47.394Z,2.70
2024-02-16T13:29:50.270Z,3.30
2024-02-16T13:32:55.551Z,3.03
2024-02-16T13:35:58.562Z,3.10
2024-02-16T13:39:03.062Z,3.00
2024-02-16T13:43:06.121Z,3.13
2024-02-16T13:46:09.029Z,3.08
2024-02-16T13:49:12.001Z,3.35
2024-02-16T13:52:15.040Z,3.13
2024-02-16T13:55:19.342Z,2.88
2024-02-16T13:58:22.206Z,3.45
2024-02-16T14:01:25.208Z,3.72
2024-02-16T14:04:28.828Z,3.15
2024-02-16T14:07:34.134Z,3.80
2024-02-16T14:10:42.066Z,4.03
2024-02-16T14:13:45.058Z,4.93
2024-02-16T14:16:47.968Z,3.60
2024-02-16T14:19:50.905Z,3.50
2024-02-16T14:22:53.960Z,2.90
2024-02-16T14:25:58.367Z,3.15
2024-02-16T14:29:02.394Z,2.80
2024-02-16T14:32:06.020Z,3.20
2024-02-16T14:35:09.857Z,3.10
2024-02-16T14:38:38.071Z,3.30
2024-02-16T14:41:50.138Z,2.90
2024-02-16T14:44:55.678Z,2.88
2024-02-16T14:49:02.956Z,2.80
2024-02-16T14:52:08.550Z,3.03
2024-02-16T14:55:11.822Z,2.33
2024-02-16T14:58:16.396Z,2.70
2024-02-16T15:01:19.550Z,2.63
2024-02-16T15:04:23.558Z,3.53
2024-02-16T15:07:28.228Z,3.10
2024-02-16T15:10:31.749Z,2.90
2024-02-16T15:13:38.865Z,2.63
2024-02-16T15:16:42.242Z,6.63
2024-02-16T15:19:46.212Z,2.53
2024-02-16T15:22:53.574Z,2.70
2024-02-16T15:25:57.037Z,2.50
2024-02-16T15:29:03.411Z,2.50
2024-02-16T15:32:11.025Z,3.00
2024-02-16T15:35:17.041Z,2.38
2024-02-16T15:38:25.510Z,2.58
2024-02-16T15:41:31.995Z,3.08
2024-02-16T15:44:36.867Z,2.97
2024-02-16T15:47:40.975Z,2.83
2024-02-16T15:51:31.031Z,5.85
2024-02-16T15:54:52.098Z,3.33
2024-02-16T15:57:55.562Z,3.70
2024-02-16T16:01:00.101Z,3.20
2024-02-16T16:04:11.166Z,3.17
2024-02-16T16:07:16.509Z,3.35
2024-02-16T16:10:25.697Z,3.28
2024-02-16T16:13:28.679Z,3.88
2024-02-16T16:16:37.226Z,3.53
2024-02-16T16:19:41.668Z,3.60
2024-02-16T16:22:46.874Z,3.90
2024-02-16T16:26:32.615Z,4.20
2024-02-16T16:29:49.617Z,3.92
2024-02-16T16:33:08.570Z,3.58
2024-02-16T16:36:22.996Z,4.30
2024-02-16T16:39:35.913Z,4.03
2024-02-16T16:42:42.728Z,4.38
2024-02-16T16:46:28.258Z,4.10
2024-02-16T16:49:32.839Z,4.50
2024-02-16T16:52:36.252Z,4.80
2024-02-16T16:55:39.298Z,5.03
2024-02-16T16:58:43.697Z,4.70
2024-02-16T17:01:52.358Z,5.60
2024-02-16T17:04:58.427Z,5.22
2024-02-16T17:08:01.596Z,6.30
2024-02-16T17:11:05.691Z,6.30
2024-02-16T17:14:10.338Z,8.00
2024-02-16T17:17:13.341Z,6.20
2024-02-16T17:20:18.580Z,11.75
2024-02-16T17:23:21.768Z,6.50
2024-02-16T17:26:43.723Z,6.40
2024-02-16T17:29:49.244Z,6.82
2024-02-16T17:32:53.032Z,6.70
2024-02-16T17:35:57.882Z,6.20
2024-02-16T17:39:04.462Z,7.05
2024-02-16T17:42:08.153Z,6.47
2024-02-16T17:45:11.756Z,6.20
2024-02-16T17:48:14.983Z,6.88
2024-02-16T17:51:19.637Z,6.10
2024-02-16T17:54:22.778Z,6.55
2024-02-16T17:58:22.899Z,8.88
2024-02-16T18:01:26.239Z,7.10
2024-02-16T18:04:29.402Z,6.93
2024-02-16T18:07:34.298Z,6.40
2024-02-16T18:10:37.821Z,7.13
2024-02-16T18:13:40.914Z,7.15
2024-02-16T18:16:44.052Z,8.27
2024-02-16T18:19:47.627Z,6.75
2024-02-16T18:22:53.922Z,6.55
2024-02-16T18:26:01.113Z,6.65
2024-02-16T18:29:04.779Z,6.22
2024-02-16T18:32:08.682Z,6.45
2024-02-16T18:35:12.236Z,6.97
2024-02-16T18:38:17.052Z,7.47
2024-02-16T18:41:20.478Z,6.80
2024-02-16T18:44:23.927Z,7.30
2024-02-16T18:47:27.516Z,6.90
2024-02-16T18:50:30.815Z,6.93
2024-02-16T18:53:35.892Z,7.00
2024-02-16T18:56:39.518Z,7.63
2024-02-16T18:59:42.574Z,7.75
2024-02-16T19:02:45.579Z,7.65
2024-02-16T19:05:48.660Z,7.95
2024-02-16T19:08:53.830Z,8.27
2024-02-16T19:11:58.382Z,9.00
2024-02-16T19:15:02.537Z,8.35
2024-02-16T19:18:09.123Z,8.35
2024-02-16T19:21:12.763Z,8.85
2024-02-16T19:24:25.090Z,8.95
2024-02-16T19:27:32.462Z,8.18
2024-02-16T19:30:35.727Z,9.10
2024-02-16T19:33:43.394Z,8.63
2024-02-16T19:36:46.805Z,8.82
2024-02-16T19:39:51.459Z,8.82
2024-02-16T19:42:55.227Z,9.45
2024-02-16T19:45:58.744Z,9.73
2024-02-16T19:49:02.133Z,10.38
2024-02-16T19:52:05.776Z,9.70
2024-02-16T19:55:11.137Z,11.30
2024-02-16T19:58:16.990Z,11.65
2024-02-16T20:01:21.950Z,11.90
2024-02-16T20:04:25.277Z,11.32
2024-02-16T20:07:29.954Z,10.95
2024-02-16T20:10:40.566Z,11.23
2024-02-16T20:13:45.583Z,9.93
2024-02-16T20:16:50.898Z,10.25
2024-02-16T20:19:54.958Z,10.07
2024-02-16T20:23:23.476Z,10.73
2024-02-16T20:26:29.087Z,10.23
2024-02-16T20:29:36.298Z,9.98
2024-02-16T20:32:41.144Z,10.20
2024-02-16T20:35:45.237Z,9.95
2024-02-16T20:38:49.037Z,10.02
2024-02-16T20:42:00.380Z,9.90
2024-02-16T20:45:10.594Z,9.80
2024-02-16T20:48:19.019Z,10.48
2024-02-16T20:51:24.472Z,10.02
2024-02-16T20:54:32.475Z,10.30
2024-02-16T20:57:43.771Z,10.35
2024-02-16T21:00:50.689Z,9.95
2024-02-16T21:03:59.921Z,11.07
2024-02-16T21:07:10.786Z,11.45
2024-02-16T21:10:16.078Z,14.40
2024-02-16T21:13:31.943Z,11.18
2024-02-16T21:17:21.113Z,11.43
2024-02-16T21:20:41.330Z,13.95
2024-02-16T21:23:56.652Z,15.13
2024-02-16T21:30:47.484Z,10.40
2024-02-16T21:33:53.123Z,11.43
2024-02-16T21:36:59.570Z,11.65
2024-02-16T21:40:05.003Z,10.48
2024-02-16T21:43:12.955Z,10.50
2024-02-16T21:46:28.620Z,10.48
2024-02-16T21:49:34.511Z,10.93
2024-02-16T21:52:39.465Z,10.65
2024-02-16T21:55:44.347Z,11.63
2024-02-16T21:58:48.481Z,11.60
2024-02-16T22:01:54.081Z,11.13
2024-02-16T22:04:58.225Z,11.90
2024-02-16T22:08:02.227Z,11.63
2024-02-16T22:11:06.570Z,11.77
2024-02-16T22:14:12.195Z,11.35
2024-02-16T22:17:18.644Z,11.23
2024-02-16T22:20:29.136Z,12.07
2024-02-16T22:23:37.772Z,12.00
2024-02-16T22:26:44.982Z,11.25
2024-02-16T22:29:53.913Z,11.45
2024-02-16T22:33:01.454Z,10.70
2024-02-16T22:39:41.966Z,11.30
2024-02-16T22:42:51.805Z,12.07
2024-02-16T22:45:58.922Z,11.10
2024-02-16T22:49:06.134Z,11.40
2024-02-16T22:52:12.341Z,11.05
2024-02-16T22:55:17.093Z,11.77
2024-02-16T22:58:22.918Z,11.80
2024-02-16T23:01:35.337Z,11.75
2024-02-16T23:04:42.349Z,11.23
2024-02-16T23:07:46.414Z,11.65
2024-02-16T23:10:50.081Z,11.73
2024-02-16T23:13:53.830Z,11.77
2024-02-16T23:16:57.461Z,13.02
2024-02-16T23:20:02.739Z,13.20
2024-02-16T23:23:11.492Z,13.32
2024-02-16T23:26:15.095Z,13.70
2024-02-16T23:29:18.494Z,13.18
2024-02-16T23:32:22.051Z,12.98
2024-02-16T23:35:26.985Z,13.73
2024-02-16T23:38:31.234Z,13.90
2024-02-16T23:41:36.438Z,13.15
2024-02-16T23:44:40.735Z,12.85
2024-02-16T23:47:45.809Z,12.77
2024-02-16T23:50:51.711Z,12.93
2024-02-16T23:57:22.374Z,12.93
